createdAt,value
2019-01-03T00:00:34.533Z,96952.2
2019-01-03T00:01:36.979Z,96948.6
2019-01-03T00:02:39.427Z,96947.8
2019-01-03T00:03:41.861Z,96950.2
2019-01-03T00:04:44.318Z,96944.8
2019-01-03T00:05:46.743Z,96943.3
2019-01-03T00:06:49.176Z,96941.6
2019-01-03T00:07:51.326Z,96938.2
2019-01-03T00:08:53.759Z,96941.7
2019-01-03T00:09:56.184Z,96944
2019-01-03T00:10:57.520Z,96943.8
2019-01-03T00:11:59.688Z,96951.4
2019-01-03T00:13:02.119Z,96951.7
2019-01-03T00:14:04.005Z,96954.1
2019-01-03T00:15:06.441Z,96958.5
2019-01-03T00:16:08.602Z,96962
2019-01-03T00:17:10.496Z,96964.4
2019-01-03T00:18:12.653Z,96963.7
2019-01-03T00:19:14.241Z,96964.8
2019-01-03T00:20:16.676Z,96964.8
2019-01-03T00:21:19.109Z,96970.9
2019-01-03T00:22:21.563Z,96971.2
2019-01-03T00:23:23.995Z,96971.8
2019-01-03T00:24:26.443Z,96971.6
2019-01-03T00:25:28.884Z,96973.2
2019-01-03T00:26:31.058Z,96973.1
2019-01-03T00:27:33.486Z,96975.9
2019-01-03T00:28:37.505Z,96976.3
2019-01-03T00:29:39.935Z,96976.7
2019-01-03T00:30:42.365Z,96979.9
2019-01-03T00:31:44.805Z,96979.4
2019-01-03T00:32:46.957Z,96979.7
2019-01-03T00:33:49.115Z,96983.4
2019-01-03T00:34:51.271Z,96983.6
2019-01-03T00:35:53.458Z,96990.8
2019-01-03T00:36:55.895Z,96987.6
2019-01-03T00:37:58.320Z,96986.3
2019-01-03T00:39:00.479Z,96993.5
2019-01-03T00:40:02.904Z,96993
2019-01-03T00:41:05.072Z,96992.9
2019-01-03T00:42:06.961Z,96994.1
2019-01-03T00:43:09.134Z,96994.9
2019-01-03T00:44:11.293Z,96995.5
2019-01-03T00:45:13.714Z,96992.8
2019-01-03T00:46:16.144Z,96993.7
2019-01-03T00:47:18.574Z,96999.2
2019-01-03T00:48:21.003Z,96998.5
2019-01-03T00:49:23.443Z,96999.9
2019-01-03T00:50:25.621Z,97002.4
2019-01-03T00:51:28.037Z,97004.2
2019-01-03T00:52:30.457Z,97005.4
2019-01-03T00:53:32.875Z,97003.6
2019-01-03T00:54:34.742Z,97009.7
2019-01-03T00:55:37.171Z,97010.6
2019-01-03T00:56:39.594Z,97017.5
2019-01-03T00:57:42.032Z,97015.6
2019-01-03T00:58:44.470Z,97013.5
2019-01-03T00:59:46.889Z,97016.7
2019-01-03T01:00:49.334Z,97016.2
2019-01-03T01:01:51.495Z,97013.8
2019-01-03T01:02:53.954Z,97020.6
2019-01-03T01:03:56.377Z,97019.4
2019-01-03T01:04:58.813Z,97023.4
2019-01-03T01:06:01.232Z,97026.7
2019-01-03T01:07:03.655Z,97026.1
2019-01-03T01:08:05.520Z,97027.5
2019-01-03T01:09:07.965Z,97026
2019-01-03T01:10:10.395Z,97024.2
2019-01-03T01:11:12.814Z,97025.5
2019-01-03T01:12:14.971Z,97029
2019-01-03T01:13:16.859Z,97025.4
2019-01-03T01:14:18.992Z,97028.7
2019-01-03T01:15:21.144Z,97028.3
2019-01-03T01:16:23.568Z,97029.4
2019-01-03T01:17:25.720Z,97024.3
2019-01-03T01:18:28.138Z,97026.8
2019-01-03T01:19:30.567Z,97032.1
2019-01-03T01:20:32.997Z,97032.2
2019-01-03T01:21:35.435Z,97035.2
2019-01-03T01:22:37.617Z,97037.9
2019-01-03T01:23:40.049Z,97042.1
2019-01-03T01:24:42.471Z,97042.8
2019-01-03T01:25:44.895Z,97037.5
2019-01-03T01:26:47.314Z,97043.4
2019-01-03T01:27:49.731Z,97043.2
2019-01-03T01:28:52.165Z,97044
2019-01-03T01:29:54.602Z,97045.6
2019-01-03T01:30:56.734Z,97051
2019-01-03T01:31:59.175Z,97053.7
2019-01-03T01:33:01.045Z,97056
2019-01-03T01:34:03.465Z,97061.2
2019-01-03T01:35:05.896Z,97059.3
2019-01-03T01:36:08.342Z,97061.4
2019-01-03T01:37:10.501Z,97066.6
2019-01-03T01:38:12.938Z,97064.8
2019-01-03T01:39:15.362Z,97060.2
2019-01-03T01:40:17.785Z,97062.4
2019-01-03T01:41:20.214Z,97059.1
2019-01-03T01:42:22.644Z,97057.6
2019-01-03T01:43:25.062Z,97060.6
2019-01-03T01:44:27.485Z,97058
2019-01-03T01:45:29.915Z,97061.2
2019-01-03T01:46:32.341Z,97064.6
2019-01-03T01:47:34.244Z,97062.6
2019-01-03T01:48:36.399Z,97059.6
2019-01-03T01:49:38.551Z,97058.4
2019-01-03T01:50:40.680Z,97061.6
2019-01-03T01:51:43.097Z,97057.7
2019-01-03T01:52:45.531Z,97057
2019-01-03T01:53:47.953Z,97061.7
2019-01-03T01:54:50.391Z,97060
2019-01-03T01:55:52.542Z,97056.5
2019-01-03T01:56:54.961Z,97063.5
2019-01-03T01:57:57.389Z,97061.5
2019-01-03T01:58:59.531Z,97058.1
2019-01-03T02:00:01.953Z,97058.4
2019-01-03T02:01:04.376Z,97060.3
2019-01-03T02:02:06.535Z,97063
2019-01-03T02:03:08.970Z,97063.3
2019-01-03T02:04:11.396Z,97062.7
2019-01-03T02:05:13.825Z,97063.9
2019-01-03T02:06:16.253Z,97059.6
2019-01-03T02:07:18.395Z,97059.3
2019-01-03T02:08:20.541Z,97060.1
2019-01-03T02:09:22.972Z,97063.2
2019-01-03T02:10:25.441Z,97065.1
2019-01-03T02:11:27.862Z,97065
2019-01-03T02:12:30.285Z,97070.9
2019-01-03T02:13:32.715Z,97071
2019-01-03T02:14:35.142Z,97073.8
2019-01-03T02:15:37.325Z,97070
2019-01-03T02:16:39.759Z,97075.4
2019-01-03T02:17:41.906Z,97076.4
2019-01-03T02:18:44.047Z,97077.5
2019-01-03T02:19:46.200Z,97077
2019-01-03T02:20:48.065Z,97074.1
2019-01-03T02:21:50.225Z,97073.9
2019-01-03T02:22:52.354Z,97075.9
2019-01-03T02:23:54.539Z,97075.8
2019-01-03T02:24:56.963Z,97073.5
2019-01-03T02:25:59.113Z,97074.5
2019-01-03T02:27:01.270Z,97076
2019-01-03T02:28:03.411Z,97075.8
2019-01-03T02:29:05.576Z,97074.9
2019-01-03T02:30:08.004Z,97074.4
2019-01-03T02:31:10.433Z,97068.6
2019-01-03T02:32:12.858Z,97071.9
2019-01-03T02:33:15.275Z,97074.7
2019-01-03T02:34:17.439Z,97069.4
2019-01-03T02:35:19.856Z,97071.2
2019-01-03T02:36:22.281Z,97071.9
2019-01-03T02:37:24.757Z,97068.9
2019-01-03T02:38:26.907Z,97069.3
2019-01-03T02:39:29.327Z,97071.4
2019-01-03T02:40:31.515Z,97069.1
2019-01-03T02:41:33.928Z,97070.7
2019-01-03T02:42:36.346Z,97068.9
2019-01-03T02:43:38.485Z,97069.3
2019-01-03T02:44:40.924Z,97069.4
2019-01-03T02:45:43.350Z,97067.4
2019-01-03T02:46:45.776Z,97067.3
2019-01-03T02:47:47.655Z,97068.4
2019-01-03T02:48:49.829Z,97063.6
2019-01-03T02:49:52.255Z,97065
2019-01-03T02:50:54.677Z,97074.3
2019-01-03T02:51:57.108Z,97073.4
2019-01-03T02:52:59.255Z,97070.1
2019-01-03T02:54:01.680Z,97073.4
2019-01-03T02:55:04.103Z,97073.2
2019-01-03T02:56:06.265Z,97072.6
2019-01-03T02:57:08.691Z,97075.7
2019-01-03T02:58:10.865Z,97072.5
2019-01-03T02:59:13.294Z,97074.2
2019-01-03T03:00:15.453Z,97072.9
2019-01-03T03:01:17.881Z,97074.5
2019-01-03T03:02:20.088Z,97074.8
2019-01-03T03:03:22.516Z,97076.1
2019-01-03T03:04:24.945Z,97074.8
2019-01-03T03:05:27.387Z,97070.3
2019-01-03T03:06:29.552Z,97072.3
2019-01-03T03:07:31.979Z,97070.1
2019-01-03T03:08:34.408Z,97068.5
2019-01-03T03:09:36.829Z,97071.4
2019-01-03T03:10:39.257Z,97072.5
2019-01-03T03:11:41.683Z,97068.9
2019-01-03T03:12:44.097Z,97066.5
2019-01-03T03:13:46.540Z,97071.5
2019-01-03T03:14:48.695Z,97070.7
2019-01-03T03:15:51.133Z,97071.9
2019-01-03T03:16:53.572Z,97070.9
2019-01-03T03:17:56.003Z,97074
2019-01-03T03:18:58.171Z,97075.2
2019-01-03T03:20:00.779Z,97075.3
2019-01-03T03:21:02.946Z,97082.5
2019-01-03T03:22:05.103Z,97076.6
2019-01-03T03:23:07.543Z,97079.5
2019-01-03T03:24:09.986Z,97083.9
2019-01-03T03:25:12.131Z,97080.2
2019-01-03T03:26:14.270Z,97083.4
2019-01-03T03:27:16.695Z,97078.9
2019-01-03T03:28:19.117Z,97079.2
2019-01-03T03:29:23.000Z,97078
2019-01-03T03:30:25.430Z,97073
2019-01-03T03:31:27.869Z,97077.4
2019-01-03T03:32:30.037Z,97075.9
2019-01-03T03:33:32.473Z,97071.6
2019-01-03T03:34:34.909Z,97071.4
2019-01-03T03:35:37.051Z,97075.6
2019-01-03T03:36:39.209Z,97072.6
2019-01-03T03:37:41.633Z,97072.4
2019-01-03T03:38:44.061Z,97074.8
2019-01-03T03:39:45.939Z,97077.3
2019-01-03T03:40:48.372Z,97076
2019-01-03T03:41:50.809Z,97075.6
2019-01-03T03:42:53.227Z,97073.8
2019-01-03T03:43:55.661Z,97073.9
2019-01-03T03:44:58.084Z,97078.9
2019-01-03T03:45:59.971Z,97074.4
2019-01-03T03:47:02.397Z,97073
2019-01-03T03:48:04.533Z,97068.9
2019-01-03T03:49:06.949Z,97072.6
2019-01-03T03:50:09.421Z,97070.3
2019-01-03T03:51:11.572Z,97074
2019-01-03T03:52:13.744Z,97072.6
2019-01-03T03:53:16.168Z,97068
2019-01-03T03:54:18.324Z,97069.7
2019-01-03T03:55:20.191Z,97072.2
2019-01-03T03:56:22.153Z,97069.6
2019-01-03T03:57:24.569Z,97072.3
2019-01-03T03:58:26.444Z,97070.1
2019-01-03T03:59:28.881Z,97069.5
2019-01-03T04:00:31.033Z,97068.9
2019-01-03T04:01:33.193Z,97072.2
2019-01-03T04:02:35.627Z,97071.6
2019-01-03T04:03:38.049Z,97067.7
2019-01-03T04:04:40.484Z,97068
2019-01-03T04:05:42.946Z,97068.4
2019-01-03T04:06:45.374Z,97071.3
2019-01-03T04:07:47.800Z,97067.5
2019-01-03T04:08:49.955Z,97072.8
2019-01-03T04:09:52.115Z,97072.8
2019-01-03T04:10:54.265Z,97073.9
2019-01-03T04:11:56.693Z,97072.8
2019-01-03T04:12:58.573Z,97067.9
2019-01-03T04:14:00.744Z,97068.7
2019-01-03T04:15:03.186Z,97068.6
2019-01-03T04:16:05.335Z,97068.2
2019-01-03T04:17:07.773Z,97066.9
2019-01-03T04:18:10.191Z,97064.6
2019-01-03T04:19:12.614Z,97061.7
2019-01-03T04:20:15.027Z,97059.8
2019-01-03T04:21:17.445Z,97059.9
2019-01-03T04:22:19.591Z,97059.8
2019-01-03T04:23:22.015Z,97060
2019-01-03T04:24:24.445Z,97057.4
2019-01-03T04:25:26.594Z,97058
2019-01-03T04:26:29.006Z,97059.6
2019-01-03T04:27:31.425Z,97058.3
2019-01-03T04:28:33.847Z,97055.5
2019-01-03T04:29:36.276Z,97054.7
2019-01-03T04:30:38.425Z,97053.3
2019-01-03T04:31:40.853Z,97048.2
2019-01-03T04:32:43.292Z,97043.2
2019-01-03T04:33:45.488Z,97041.5
2019-01-03T04:34:47.935Z,97041.5
2019-01-03T04:35:50.365Z,97044.3
2019-01-03T04:36:52.525Z,97044.8
2019-01-03T04:37:54.686Z,97043.8
2019-01-03T04:38:57.106Z,97045.9
2019-01-03T04:39:59.520Z,97041.1
2019-01-03T04:41:02.004Z,97041
2019-01-03T04:42:05.023Z,97043.2
2019-01-03T04:43:07.550Z,97037.5
2019-01-03T04:44:10.023Z,97039.3
2019-01-03T04:45:12.216Z,97038.8
2019-01-03T04:46:14.378Z,97034.8
2019-01-03T04:47:16.528Z,97034.7
2019-01-03T04:48:18.953Z,97030.3
2019-01-03T04:49:21.396Z,97033.3
2019-01-03T04:50:23.831Z,97034.4
2019-01-03T04:51:26.258Z,97031.7
2019-01-03T04:52:28.696Z,97029.4
2019-01-03T04:53:31.123Z,97037
2019-01-03T04:54:33.546Z,97033.7
2019-01-03T04:55:35.671Z,97031.7
2019-01-03T04:56:37.811Z,97034.5
2019-01-03T04:57:40.228Z,97034.1
2019-01-03T04:58:42.648Z,97036.7
2019-01-03T04:59:45.074Z,97035.1
2019-01-03T05:00:47.228Z,97034.3
2019-01-03T05:01:49.644Z,97037.7
2019-01-03T05:02:51.805Z,97040
2019-01-03T05:03:54.244Z,97042
2019-01-03T05:04:56.382Z,97047.9
2019-01-03T05:05:58.543Z,97052.3
2019-01-03T05:07:00.498Z,97047.3
2019-01-03T05:08:02.664Z,97049.9
2019-01-03T05:09:04.801Z,97054.1
2019-01-03T05:10:07.226Z,97059.2
2019-01-03T05:11:09.664Z,97058.8
2019-01-03T05:12:12.096Z,97056.9
2019-01-03T05:13:14.255Z,97064
2019-01-03T05:14:16.406Z,97058.8
2019-01-03T05:15:18.826Z,97061.2
2019-01-03T05:16:21.253Z,97059.6
2019-01-03T05:17:23.676Z,97064
2019-01-03T05:18:26.100Z,97064
2019-01-03T05:19:28.522Z,97061.3
2019-01-03T05:20:30.936Z,97064.2
2019-01-03T05:21:33.362Z,97061.9
2019-01-03T05:22:35.516Z,97069.8
2019-01-03T05:23:37.659Z,97071
2019-01-03T05:24:39.828Z,97069
2019-01-03T05:25:41.713Z,97066.7
2019-01-03T05:26:44.142Z,97075
2019-01-03T05:27:46.571Z,97074.2
2019-01-03T05:28:48.744Z,97082.5
2019-01-03T05:29:50.906Z,97081
2019-01-03T05:30:53.067Z,97079.1
2019-01-03T05:31:55.498Z,97081.4
2019-01-03T05:32:57.668Z,97082.2
2019-01-03T05:33:59.521Z,97081.8
2019-01-03T05:35:01.950Z,97082.9
2019-01-03T05:36:04.372Z,97082.4
2019-01-03T05:37:06.802Z,97083.1
2019-01-03T05:38:08.657Z,97081.8
2019-01-03T05:39:10.834Z,97084.6
2019-01-03T05:40:12.985Z,97082
2019-01-03T05:41:15.444Z,97086.8
2019-01-03T05:42:17.606Z,97085.7
2019-01-03T05:43:20.016Z,97085.1
2019-01-03T05:44:22.450Z,97089.7
2019-01-03T05:45:24.346Z,97090.6
2019-01-03T05:46:27.953Z,97093.7
2019-01-03T05:47:30.548Z,97095.1
2019-01-03T05:48:32.984Z,97098
2019-01-03T05:49:35.140Z,97098.9
2019-01-03T05:50:37.572Z,97099.3
2019-01-03T05:51:40.014Z,97093.9
2019-01-03T05:52:42.166Z,97094.4
2019-01-03T05:53:44.323Z,97099.9
2019-01-03T05:54:46.741Z,97103
2019-01-03T05:55:48.910Z,97099.9
2019-01-03T05:56:51.352Z,97106.2
2019-01-03T05:57:53.771Z,97106.4
2019-01-03T05:58:55.650Z,97106.6
2019-01-03T05:59:57.800Z,97109.6
2019-01-03T06:01:00.224Z,97109
2019-01-03T06:02:02.647Z,97107.4
2019-01-03T06:03:05.074Z,97108.2
2019-01-03T06:04:07.227Z,97111.7
2019-01-03T06:05:09.362Z,97111.5
2019-01-03T06:06:11.796Z,97111.1
2019-01-03T06:07:14.211Z,97114.9
2019-01-03T06:08:16.638Z,97114.5
2019-01-03T06:09:19.062Z,97116.5
2019-01-03T06:10:21.496Z,97117.7
2019-01-03T06:11:24.102Z,97123.7
2019-01-03T06:12:26.226Z,97121.2
2019-01-03T06:13:28.656Z,97120.1
2019-01-03T06:14:31.086Z,97117.3
2019-01-03T06:15:33.246Z,97121.8
2019-01-03T06:16:35.683Z,97118.7
2019-01-03T06:17:37.832Z,97117.4
2019-01-03T06:18:40.262Z,97118.8
2019-01-03T06:19:42.126Z,97115
2019-01-03T06:20:44.550Z,97115.1
2019-01-03T06:21:46.984Z,97114.4
2019-01-03T06:22:49.346Z,97115.4
2019-01-03T06:23:51.230Z,97115.3
2019-01-03T06:24:53.376Z,97121
2019-01-03T06:25:55.819Z,97117.6
2019-01-03T06:26:58.254Z,97121.5
2019-01-03T06:28:00.680Z,97118.9
2019-01-03T06:29:03.121Z,97127.2
2019-01-03T06:30:05.274Z,97125.3
2019-01-03T06:31:07.172Z,97127.8
2019-01-03T06:32:09.314Z,97128.8
2019-01-03T06:33:11.474Z,97130.7
2019-01-03T06:34:13.906Z,97127.3
2019-01-03T06:35:16.334Z,97127.1
2019-01-03T06:36:18.740Z,97129.9
2019-01-03T06:37:20.884Z,97127.2
2019-01-03T06:38:23.312Z,97130
2019-01-03T06:39:25.765Z,97129.1
2019-01-03T06:40:27.638Z,97131.8
2019-01-03T06:41:29.814Z,97128.4
2019-01-03T06:42:32.261Z,97130.6
2019-01-03T06:43:34.435Z,97132.8
2019-01-03T06:44:36.870Z,97129.2
2019-01-03T06:45:39.336Z,97133.3
2019-01-03T06:46:41.496Z,97135.6
2019-01-03T06:47:43.926Z,97131.4
2019-01-03T06:48:46.352Z,97129.8
2019-01-03T06:49:48.783Z,97130.4
2019-01-03T06:50:51.216Z,97133.5
2019-01-03T06:51:53.644Z,97134.9
2019-01-03T06:52:55.515Z,97133.2
2019-01-03T06:53:57.948Z,97138.5
2019-01-03T06:55:00.370Z,97140.8
2019-01-03T06:56:02.802Z,97145.9
2019-01-03T06:57:04.955Z,97146.3
2019-01-03T06:58:07.104Z,97146
2019-01-03T06:59:09.264Z,97147.8
2019-01-03T07:00:11.687Z,97148.9
2019-01-03T07:01:14.124Z,97147.6
2019-01-03T07:02:16.288Z,97148.7
2019-01-03T07:03:18.436Z,97149.5
2019-01-03T07:04:20.614Z,97151.1
2019-01-03T07:05:23.044Z,97154.4
2019-01-03T07:06:25.467Z,97153.7
2019-01-03T07:07:27.894Z,97157.1
2019-01-03T07:08:30.070Z,97162.8
2019-01-03T07:09:32.505Z,97162.5
2019-01-03T07:10:34.646Z,97167.2
2019-01-03T07:11:37.098Z,97171.6
2019-01-03T07:12:39.526Z,97173.1
2019-01-03T07:13:41.674Z,97173.9
2019-01-03T07:14:44.092Z,97172.8
2019-01-03T07:15:46.236Z,97171.6
2019-01-03T07:16:48.652Z,97170
2019-01-03T07:17:51.085Z,97173.9
2019-01-03T07:18:53.512Z,97173.1
2019-01-03T07:19:55.672Z,97175.7
2019-01-03T07:20:58.109Z,97174
2019-01-03T07:22:00.532Z,97177.9
2019-01-03T07:23:02.949Z,97175.4
2019-01-03T07:24:05.379Z,97177.4
2019-01-03T07:25:07.804Z,97176.7
2019-01-03T07:26:10.226Z,97181.6
2019-01-03T07:27:12.667Z,97182.9
2019-01-03T07:28:14.804Z,97184.5
2019-01-03T07:29:17.230Z,97180.1
2019-01-03T07:30:19.388Z,97182.6
2019-01-03T07:31:21.271Z,97178.6
2019-01-03T07:32:23.694Z,97176.7
2019-01-03T07:33:25.854Z,97175.7
2019-01-03T07:34:27.474Z,97174.3
2019-01-03T07:35:30.460Z,97174
2019-01-03T07:36:32.622Z,97169.5
2019-01-03T07:37:34.769Z,97173.3
2019-01-03T07:38:37.197Z,97172.7
2019-01-03T07:39:39.614Z,97167.2
2019-01-03T07:40:41.768Z,97170.3
2019-01-03T07:41:44.202Z,97171.6
2019-01-03T07:42:46.105Z,97164.5
2019-01-03T07:43:48.001Z,97172.2
2019-01-03T07:44:50.153Z,97171.6
2019-01-03T07:45:52.585Z,97171.2
2019-01-03T07:46:55.002Z,97176.2
2019-01-03T07:47:57.437Z,97180.2
2019-01-03T07:48:59.312Z,97178.7
2019-01-03T07:50:01.741Z,97176.2
2019-01-03T07:51:04.185Z,97175.6
2019-01-03T07:52:06.614Z,97176
2019-01-03T07:53:09.045Z,97178.6
2019-01-03T07:54:11.474Z,97181.2
2019-01-03T07:55:13.907Z,97178.3
2019-01-03T07:56:16.324Z,97178.3
2019-01-03T07:57:18.755Z,97179.8
2019-01-03T07:58:20.944Z,97182.9
2019-01-03T07:59:23.080Z,97183
2019-01-03T08:00:25.505Z,97183
2019-01-03T08:01:27.657Z,97187
2019-01-03T08:02:30.100Z,97189
2019-01-03T08:03:32.256Z,97189
2019-01-03T08:04:34.678Z,97200.4
2019-01-03T08:05:37.110Z,97193.9
2019-01-03T08:06:39.251Z,97195.6
2019-01-03T08:07:41.716Z,97196.6
2019-01-03T08:08:44.167Z,97196.2
2019-01-03T08:09:46.309Z,97191.7
2019-01-03T08:10:48.733Z,97191.2
2019-01-03T08:11:51.158Z,97194.1
2019-01-03T08:12:53.585Z,97194.8
2019-01-03T08:13:56.015Z,97195
2019-01-03T08:14:58.161Z,97197
2019-01-03T08:16:00.585Z,97192.4
2019-01-03T08:17:03.009Z,97191.6
2019-01-03T08:18:05.457Z,97195.9
2019-01-03T08:19:09.112Z,97194.9
2019-01-03T08:20:11.262Z,97193.2
2019-01-03T08:21:13.445Z,97185.6
2019-01-03T08:22:15.885Z,97184.5
2019-01-03T08:23:18.031Z,97184.9
2019-01-03T08:24:19.891Z,97186.9
2019-01-03T08:25:22.103Z,97185.2
2019-01-03T08:26:24.523Z,97185.3
2019-01-03T08:27:26.664Z,97182.7
2019-01-03T08:28:29.095Z,97182.9
2019-01-03T08:29:31.522Z,97183.1
2019-01-03T08:30:33.666Z,97182.8
2019-01-03T08:31:36.097Z,97186
2019-01-03T08:32:38.527Z,97185
2019-01-03T08:33:40.703Z,97184.2
2019-01-03T08:34:43.121Z,97190.5
2019-01-03T08:35:45.250Z,97189.7
2019-01-03T08:36:47.416Z,97190.8
2019-01-03T08:37:49.850Z,97194.4
2019-01-03T08:38:52.285Z,97197.5
2019-01-03T08:39:54.713Z,97191.1
2019-01-03T08:40:57.147Z,97195.3
2019-01-03T08:41:59.575Z,97192.9
2019-01-03T08:43:02.026Z,97193.8
2019-01-03T08:44:04.459Z,97196.7
2019-01-03T08:45:06.898Z,97194.3
2019-01-03T08:46:09.334Z,97203.1
2019-01-03T08:47:11.755Z,97199.8
2019-01-03T08:48:14.174Z,97202.3
2019-01-03T08:49:16.347Z,97204.7
2019-01-03T08:50:18.801Z,97201.4
2019-01-03T08:51:21.207Z,97202.3
2019-01-03T08:52:23.634Z,97203
2019-01-03T08:53:26.075Z,97200.1
2019-01-03T08:54:28.247Z,97201.2
2019-01-03T08:55:30.399Z,97201.7
2019-01-03T08:56:32.284Z,97201.9
2019-01-03T08:57:34.440Z,97197.8
2019-01-03T08:58:36.605Z,97202.6
2019-01-03T08:59:38.769Z,97198.7
2019-01-03T09:00:40.934Z,97199.7
2019-01-03T09:01:43.375Z,97200
2019-01-03T09:02:45.809Z,97199.3
2019-01-03T09:03:48.234Z,97194.1
2019-01-03T09:04:50.373Z,97194.2
2019-01-03T09:05:52.531Z,97197.9
2019-01-03T09:06:54.959Z,97199.7
2019-01-03T09:07:57.413Z,97194.4
2019-01-03T09:08:59.316Z,97195.8
2019-01-03T09:10:01.479Z,97197.9
2019-01-03T09:11:03.914Z,97198.5
2019-01-03T09:12:05.803Z,97200.2
2019-01-03T09:13:08.245Z,97200.3
2019-01-03T09:14:10.673Z,97200
2019-01-03T09:15:12.293Z,97202.5
2019-01-03T09:16:14.725Z,97203.6
2019-01-03T09:17:17.143Z,97212.3
2019-01-03T09:18:19.303Z,97206.5
2019-01-03T09:19:21.457Z,97212.1
2019-01-03T09:20:23.593Z,97214.8
2019-01-03T09:21:25.510Z,97216.5
2019-01-03T09:22:27.938Z,97216.4
2019-01-03T09:23:30.393Z,97214.6
2019-01-03T09:24:32.539Z,97214.9
2019-01-03T09:25:34.963Z,97211.8
2019-01-03T09:26:37.405Z,97216.9
2019-01-03T09:27:39.554Z,97219.2
2019-01-03T09:28:41.987Z,97218.9
2019-01-03T09:29:44.412Z,97218
2019-01-03T09:30:46.843Z,97222
2019-01-03T09:31:49.002Z,97219.5
2019-01-03T09:32:51.429Z,97219.6
2019-01-03T09:33:53.851Z,97219.7
2019-01-03T09:34:56.287Z,97222.4
2019-01-03T09:35:58.723Z,97227.1
2019-01-03T09:37:00.875Z,97219.6
2019-01-03T09:38:03.299Z,97219
2019-01-03T09:39:05.459Z,97219.4
2019-01-03T09:40:07.607Z,97223.9
2019-01-03T09:41:10.044Z,97218.6
2019-01-03T09:42:12.215Z,97216.4
2019-01-03T09:43:14.377Z,97216.9
2019-01-03T09:44:16.814Z,97214.2
2019-01-03T09:45:19.232Z,97210.8
2019-01-03T09:46:21.661Z,97213
2019-01-03T09:47:23.815Z,97211.2
2019-01-03T09:48:25.956Z,97210.1
2019-01-03T09:49:28.103Z,97210.3
2019-01-03T09:50:29.971Z,97212.3
2019-01-03T09:51:32.100Z,97217.6
2019-01-03T09:52:34.253Z,97209.1
2019-01-03T09:53:36.387Z,97211.9
2019-01-03T09:54:38.551Z,97212.4
2019-01-03T09:55:40.991Z,97205.9
2019-01-03T09:56:43.158Z,97204.7
2019-01-03T09:57:45.017Z,97204.2
2019-01-03T09:58:47.453Z,97203.3
2019-01-03T09:59:49.607Z,97202.7
2019-01-03T10:00:52.040Z,97203.5
2019-01-03T10:01:53.929Z,97202.6
2019-01-03T10:02:56.384Z,97205.5
2019-01-03T10:03:58.829Z,97201.1
2019-01-03T10:05:01.301Z,97203
2019-01-03T10:06:03.727Z,97197.7
2019-01-03T10:07:05.880Z,97195.6
2019-01-03T10:08:08.043Z,97196.3
2019-01-03T10:09:10.469Z,97191.9
2019-01-03T10:10:12.913Z,97193.7
2019-01-03T10:11:15.355Z,97188.8
2019-01-03T10:12:17.521Z,97189.9
2019-01-03T10:13:19.946Z,97189.8
2019-01-03T10:14:22.375Z,97191.8
2019-01-03T10:15:24.794Z,97197.2
2019-01-03T10:16:26.989Z,97189.4
2019-01-03T10:17:29.433Z,97196.4
2019-01-03T10:18:31.875Z,97192.3
2019-01-03T10:19:34.344Z,97192.8
2019-01-03T10:20:36.776Z,97189.7
2019-01-03T10:21:38.940Z,97187.3
2019-01-03T10:22:41.407Z,97190.2
2019-01-03T10:23:43.634Z,97187
2019-01-03T10:24:45.796Z,97184.6
2019-01-03T10:25:48.215Z,97184.3
2019-01-03T10:26:50.359Z,97189.2
2019-01-03T10:27:52.537Z,97184.4
2019-01-03T10:28:54.696Z,97187.3
2019-01-03T10:29:57.134Z,97187.9
2019-01-03T10:30:59.035Z,97190.2
2019-01-03T10:32:01.472Z,97188.7
2019-01-03T10:33:03.618Z,97187.6
2019-01-03T10:34:06.045Z,97186.5
2019-01-03T10:35:08.472Z,97186.5
2019-01-03T10:36:10.894Z,97182.6
2019-01-03T10:37:13.043Z,97186.1
2019-01-03T10:39:21.147Z,97189.9
2019-01-03T10:40:23.580Z,97187.8
2019-01-03T10:41:25.715Z,97185.7
2019-01-03T10:42:27.867Z,97184.8
2019-01-03T10:43:29.734Z,97179.3
2019-01-03T10:44:32.176Z,97178.9
2019-01-03T10:45:34.606Z,97178.3
2019-01-03T10:46:37.035Z,97173.2
2019-01-03T10:47:39.462Z,97173.4
2019-01-03T10:48:41.904Z,97170.2
2019-01-03T10:49:43.768Z,97168
2019-01-03T10:50:46.199Z,97168.5
2019-01-03T10:51:48.623Z,97168.6
2019-01-03T10:52:51.054Z,97165.8
2019-01-03T10:53:53.244Z,97160.5
2019-01-03T10:54:55.666Z,97158.9
2019-01-03T10:55:57.826Z,97157.4
2019-01-03T10:57:00.266Z,97156.9
2019-01-03T10:58:02.696Z,97157.8
2019-01-03T10:59:05.115Z,97161.6
2019-01-03T11:00:07.548Z,97158.5
2019-01-03T11:01:09.968Z,97158.8
2019-01-03T11:02:12.397Z,97157.1
2019-01-03T11:03:14.268Z,97152
2019-01-03T11:04:16.435Z,97143.7
2019-01-03T11:05:18.608Z,97139.3
2019-01-03T11:06:21.034Z,97141.6
2019-01-03T11:07:23.206Z,97137.9
2019-01-03T11:08:25.388Z,97143.2
2019-01-03T11:09:27.545Z,97142
2019-01-03T11:10:29.429Z,97137.5
2019-01-03T11:11:31.861Z,97132.8
2019-01-03T11:12:33.795Z,97134.7
2019-01-03T11:13:35.985Z,97131.6
2019-01-03T11:14:38.466Z,97132.2
2019-01-03T11:15:40.395Z,97134.8
2019-01-03T11:16:42.315Z,97132.1
2019-01-03T11:17:44.749Z,97133
2019-01-03T11:18:47.168Z,97130.6
2019-01-03T11:19:49.591Z,97123.9
2019-01-03T11:20:51.753Z,97118.6
2019-01-03T11:21:54.196Z,97120
2019-01-03T11:22:56.625Z,97120.6
2019-01-03T11:23:58.775Z,97114.8
2019-01-03T11:25:00.950Z,97116.1
2019-01-03T11:26:03.388Z,97115.5
2019-01-03T11:27:05.814Z,97119.9
2019-01-03T11:28:07.975Z,97118.4
2019-01-03T11:29:10.403Z,97117.7
2019-01-03T11:30:12.836Z,97115.5
2019-01-03T11:31:15.261Z,97120.1
2019-01-03T11:32:17.683Z,97114.7
2019-01-03T11:33:19.828Z,97112
2019-01-03T11:34:21.681Z,97106.5
2019-01-03T11:35:23.549Z,97111
2019-01-03T11:36:25.708Z,97112.3
2019-01-03T11:37:28.136Z,97107.3
2019-01-03T11:38:30.293Z,97102.1
2019-01-03T11:39:32.446Z,97104.6
2019-01-03T11:40:34.608Z,97103.4
2019-01-03T11:41:37.026Z,97099.9
2019-01-03T11:42:39.456Z,97095.7
2019-01-03T11:43:41.876Z,97097.2
2019-01-03T11:44:44.027Z,97097.3
2019-01-03T11:45:46.446Z,97090.3
2019-01-03T11:46:48.312Z,97096
2019-01-03T11:47:50.738Z,97092.6
2019-01-03T11:48:52.611Z,97089.3
2019-01-03T11:49:55.045Z,97088.6
2019-01-03T11:50:57.483Z,97087.4
2019-01-03T11:51:59.360Z,97086.3
2019-01-03T11:53:01.786Z,97081.4
2019-01-03T11:54:03.679Z,97081.5
2019-01-03T11:55:05.825Z,97078.9
2019-01-03T11:56:08.252Z,97077.8
2019-01-03T11:57:10.675Z,97075.6
2019-01-03T11:58:13.221Z,97067.2
2019-01-03T11:59:15.364Z,97069.5
2019-01-03T12:00:17.813Z,97067.1
2019-01-03T12:01:20.236Z,97066
2019-01-03T12:03:27.649Z,97062.7
2019-01-03T12:04:30.096Z,97063.2
2019-01-03T12:05:32.254Z,97062.7
2019-01-03T12:06:34.408Z,97058.3
2019-01-03T12:07:36.826Z,97055.2
2019-01-03T12:08:39.268Z,97055.4
2019-01-03T12:09:41.698Z,97053.6
2019-01-03T12:10:44.116Z,97048
2019-01-03T12:11:46.256Z,97046.3
2019-01-03T12:12:48.698Z,97045
2019-01-03T12:13:51.126Z,97047.2
2019-01-03T12:14:53.555Z,97045
2019-01-03T12:15:55.426Z,97044
2019-01-03T12:16:57.571Z,97045.4
2019-01-03T12:18:00.035Z,97039.3
2019-01-03T12:19:02.219Z,97041.2
2019-01-03T12:20:04.644Z,97040.1
2019-01-03T12:21:06.772Z,97037.3
2019-01-03T12:22:09.209Z,97032.6
2019-01-03T12:23:11.378Z,97042.3
2019-01-03T12:24:13.285Z,97033.1
2019-01-03T12:25:15.757Z,97038.4
2019-01-03T12:26:17.917Z,97033.6
2019-01-03T12:27:19.821Z,97035
2019-01-03T12:28:22.245Z,97031.9
2019-01-03T12:29:24.687Z,97030.4
2019-01-03T12:30:27.137Z,97033.2
2019-01-03T12:31:29.576Z,97029.3
2019-01-03T12:32:32.002Z,97032.8
2019-01-03T12:33:34.431Z,97033.3
2019-01-03T12:34:36.859Z,97031.4
2019-01-03T12:35:39.302Z,97032.6
2019-01-03T12:36:41.494Z,97035
2019-01-03T12:37:43.931Z,97033.7
2019-01-03T12:38:46.380Z,97033.2
2019-01-03T12:39:48.820Z,97037.1
2019-01-03T12:40:51.240Z,97035.3